Time;durP1;ratioP1;P1;durP2;ratioP2;P2;SDS_P1;SDS_P2;PMS_P1;PMS_P2;Temp;Humidity;BMP_temperature;BMP_pressure;BME280_temperature;BME280_humidity;BME280_pressure;Samples;Min_cycle;Max_cycle;Signal;HPM_P1;HPM_P2
2021/11/10 00:02:18;;;;;;;1.02;0.75;;;;;;;;;;5017573;28;20079;-69
2021/11/10 00:04:44;;;;;;;0.55;0.55;;;;;;;;;;5012076;28;20034;-68
2021/11/10 00:07:10;;;;;;;1.13;1.02;;;;;;;;;;5010622;28;20392;-68
2021/11/10 00:09:36;;;;;;;1.05;0.82;;;;;;;;;;5009712;28;20029;-69
2021/11/10 00:12:02;;;;;;;1.00;0.95;;;;;;;;;;5009597;28;20033;-68
2021/11/10 00:14:28;;;;;;;1.67;1.45;;;;;;;;;;5010111;28;20037;-69
2021/11/10 00:16:56;;;;;;;1.20;1.10;;;;;;;;;;5015493;28;20033;-68
2021/11/10 00:19:22;;;;;;;1.65;0.90;;;;;;;;;;5009949;28;20549;-68
2021/11/10 00:21:48;;;;;;;1.65;1.38;;;;;;;;;;5017278;28;20048;-68
2021/11/10 00:24:14;;;;;;;0.80;0.80;;;;;;;;;;5010648;28;20416;-68
2021/11/10 00:26:40;;;;;;;0.17;0.17;;;;;;;;;;5010857;28;20042;-68
2021/11/10 00:29:06;;;;;;;1.63;1.23;;;;;;;;;;5009825;28;20045;-68
2021/11/10 00:31:32;;;;;;;0.10;0.10;;;;;;;;;;5013711;28;20679;-68
2021/11/10 00:33:58;;;;;;;0.65;0.52;;;;;;;;;;5013703;28;20496;-68
2021/11/10 00:36:23;;;;;;;0.73;0.73;;;;;;;;;;5011784;28;20029;-68
2021/11/10 00:38:50;;;;;;;0.65;0.65;;;;;;;;;;5009870;28;20038;-68
2021/11/10 00:41:16;;;;;;;0.80;0.57;;;;;;;;;;5012970;28;20543;-68
2021/11/10 00:43:42;;;;;;;0.38;0.38;;;;;;;;;;5009159;28;20025;-68
2021/11/10 00:46:07;;;;;;;0.88;0.85;;;;;;;;;;5011042;28;20087;-68
2021/11/10 00:48:55;;;;;;;0.40;0.40;;;;;;;;;;5011342;28;20030;-68
2021/11/10 00:51:21;;;;;;;1.20;1.05;;;;;;;;;;5014829;28;20026;-68
2021/11/10 00:53:47;;;;;;;0.38;0.32;;;;;;;;;;5014497;28;20056;-68
2021/11/10 00:56:13;;;;;;;0.68;0.65;;;;;;;;;;5009359;28;20485;-68
2021/11/10 00:58:39;;;;;;;0.85;0.85;;;;;;;;;;5008717;28;20026;-69
2021/11/10 01:01:04;;;;;;;0.52;0.38;;;;;;;;;;5012599;28;20084;-68
2021/11/10 01:03:31;;;;;;;0.20;0.20;;;;;;;;;;5010597;28;20025;-68
2021/11/10 01:05:57;;;;;;;0.57;0.52;;;;;;;;;;5015948;28;20038;-68
2021/11/10 01:08:24;;;;;;;2.13;0.93;;;;;;;;;;5009455;28;20044;-68
2021/11/10 01:10:50;;;;;;;0.90;0.85;;;;;;;;;;5013584;28;20028;-68
2021/11/10 01:13:16;;;;;;;0.35;0.35;;;;;;;;;;5008855;28;20232;-68
2021/11/10 01:15:42;;;;;;;0.10;0.10;;;;;;;;;;5013709;28;20025;-68
2021/11/10 01:18:09;;;;;;;0.57;0.57;;;;;;;;;;5012165;28;20026;-67
2021/11/10 01:20:35;;;;;;;0.22;0.22;;;;;;;;;;5010284;28;20151;-67
2021/11/10 01:23:01;;;;;;;0.45;0.45;;;;;;;;;;5009070;28;20026;-67
2021/11/10 01:25:27;;;;;;;0.75;0.75;;;;;;;;;;5009988;28;20423;-67
2021/11/10 01:27:53;;;;;;;0.88;0.75;;;;;;;;;;5008702;28;20540;-67
2021/11/10 01:30:19;;;;;;;0.13;0.13;;;;;;;;;;5008353;28;20063;-67
2021/11/10 01:32:45;;;;;;;0.30;0.30;;;;;;;;;;5008100;28;20025;-68
2021/11/10 01:35:11;;;;;;;0.68;0.68;;;;;;;;;;5016726;28;20029;-67
2021/11/10 01:37:37;;;;;;;0.73;0.73;;;;;;;;;;5007908;28;20022;-67
2021/11/10 01:40:05;;;;;;;0.52;0.52;;;;;;;;;;5008178;28;20034;-67
2021/11/10 01:42:31;;;;;;;2.72;1.23;;;;;;;;;;5008403;28;20038;-67
2021/11/10 01:44:58;;;;;;;2.13;0.95;;;;;;;;;;5012594;28;20122;-67
2021/11/10 01:47:24;;;;;;;0.63;0.63;;;;;;;;;;5007571;28;20025;-67
2021/11/10 01:49:50;;;;;;;1.23;0.60;;;;;;;;;;5015429;28;20153;-67
2021/11/10 01:52:16;;;;;;;0.65;0.38;;;;;;;;;;5013636;28;20543;-68
2021/11/10 01:54:43;;;;;;;0.47;0.32;;;;;;;;;;5011105;28;20033;-68
2021/11/10 01:57:10;;;;;;;0.22;0.22;;;;;;;;;;5002648;28;20026;-68
2021/11/10 01:59:42;;;;;;;0.40;0.40;;;;;;;;;;5007257;28;20057;-67
2021/11/10 02:02:11;;;;;;;0.30;0.30;;;;;;;;;;5007609;28;20026;-68
2021/11/10 02:04:38;;;;;;;2.95;2.17;;;;;;;;;;5008222;28;20030;-68
2021/11/10 02:07:04;;;;;;;0.10;0.10;;;;;;;;;;5008901;28;20041;-67
2021/11/10 02:09:30;;;;;;;0.60;0.52;;;;;;;;;;5009471;28;20041;-67
2021/11/10 02:11:57;;;;;;;1.05;0.73;;;;;;;;;;5008322;28;20079;-68
2021/11/10 02:14:24;;;;;;;2.33;0.95;;;;;;;;;;5012063;28;20129;-68
2021/11/10 02:16:51;;;;;;;5.28;1.85;;;;;;;;;;5009262;28;20385;-68
2021/11/10 02:19:17;;;;;;;0.20;0.20;;;;;;;;;;5005880;28;20038;-67
2021/11/10 02:21:47;;;;;;;8.82;2.67;;;;;;;;;;5010275;28;20042;-68
2021/11/10 02:24:13;;;;;;;0.38;0.38;;;;;;;;;;5009782;28;20034;-68
2021/11/10 02:26:41;;;;;;;0.25;0.25;;;;;;;;;;5014051;28;20515;-68
2021/11/10 02:29:07;;;;;;;0.63;0.63;;;;;;;;;;5009920;28;20128;-68
2021/11/10 02:31:34;;;;;;;2.45;1.92;;;;;;;;;;5007387;28;20070;-68
2021/11/10 02:34:04;;;;;;;0.20;0.20;;;;;;;;;;5012629;28;20687;-67
2021/11/10 02:36:31;;;;;;;0.52;0.52;;;;;;;;;;5014090;28;20787;-67
2021/11/10 02:38:59;;;;;;;0.55;0.55;;;;;;;;;;5012220;28;20037;-68
2021/11/10 02:41:27;;;;;;;0.65;0.63;;;;;;;;;;5011251;28;20064;-69
2021/11/10 02:43:53;;;;;;;0.77;0.68;;;;;;;;;;5013151;28;20048;-69
2021/11/10 02:46:19;;;;;;;1.13;0.63;;;;;;;;;;5011361;28;20038;-68
2021/11/10 02:48:45;;;;;;;0.15;0.15;;;;;;;;;;5022020;28;20109;-68
2021/11/10 02:51:10;;;;;;;0.10;0.10;;;;;;;;;;5011671;28;20187;-68
2021/11/10 02:53:36;;;;;;;0.10;0.10;;;;;;;;;;5020054;28;20030;-68
2021/11/10 02:56:02;;;;;;;0.10;0.10;;;;;;;;;;5012923;28;20026;-68
2021/11/10 02:58:33;;;;;;;0.38;0.20;;;;;;;;;;5012161;28;20570;-69
2021/11/10 03:00:59;;;;;;;0.45;0.45;;;;;;;;;;5006801;28;20029;-68
2021/11/10 03:03:25;;;;;;;0.22;0.22;;;;;;;;;;5014118;28;20512;-68
2021/11/10 03:05:52;;;;;;;1.45;1.35;;;;;;;;;;5010773;28;20174;-68
2021/11/10 03:08:19;;;;;;;1.05;0.95;;;;;;;;;;5011172;28;20034;-68
2021/11/10 03:10:45;;;;;;;1.45;0.73;;;;;;;;;;5004118;28;20026;-69
2021/11/10 03:13:11;;;;;;;0.30;0.30;;;;;;;;;;5013679;28;20080;-68
2021/11/10 03:15:39;;;;;;;0.22;0.22;;;;;;;;;;5011891;28;20450;-68
2021/11/10 03:18:05;;;;;;;0.32;0.32;;;;;;;;;;5010084;28;20053;-68
2021/11/10 03:20:31;;;;;;;0.10;0.10;;;;;;;;;;5018365;28;20272;-69
2021/11/10 03:22:57;;;;;;;0.28;0.28;;;;;;;;;;5014503;28;20384;-68
2021/11/10 03:25:23;;;;;;;0.20;0.20;;;;;;;;;;5016363;28;20117;-68
2021/11/10 03:27:49;;;;;;;0.30;0.30;;;;;;;;;;5010802;28;20120;-69
2021/11/10 03:30:14;;;;;;;0.32;0.32;;;;;;;;;;5011001;28;20516;-68
2021/11/10 03:32:41;;;;;;;3.13;1.00;;;;;;;;;;5010170;28;20053;-69
2021/11/10 03:35:07;;;;;;;0.65;0.65;;;;;;;;;;5020931;28;20053;-68
2021/11/10 03:37:34;;;;;;;2.15;1.75;;;;;;;;;;5014732;28;20061;-69
2021/11/10 03:40:00;;;;;;;1.65;1.55;;;;;;;;;;5023543;28;20412;-68
2021/11/10 03:42:26;;;;;;;0.85;0.85;;;;;;;;;;5012126;28;20037;-68
2021/11/10 03:44:52;;;;;;;0.52;0.50;;;;;;;;;;5013733;28;20105;-68
2021/11/10 03:47:18;;;;;;;1.45;1.10;;;;;;;;;;5013661;28;20037;-68
2021/11/10 03:49:43;;;;;;;0.50;0.50;;;;;;;;;;5014469;28;20120;-69
2021/11/10 03:52:11;;;;;;;1.13;1.05;;;;;;;;;;5011588;28;20308;-68
2021/11/10 03:54:37;;;;;;;2.55;0.95;;;;;;;;;;5010098;28;20031;-68
2021/11/10 03:57:03;;;;;;;1.30;0.77;;;;;;;;;;5009772;28;20061;-68
2021/11/10 03:59:29;;;;;;;0.13;0.13;;;;;;;;;;5013085;28;20033;-68
2021/11/10 04:01:55;;;;;;;0.10;0.10;;;;;;;;;;5011596;28;20022;-68
2021/11/10 04:04:21;;;;;;;0.05;0.05;;;;;;;;;;5011763;28;20026;-68
2021/11/10 04:06:47;;;;;;;0.85;0.85;;;;;;;;;;5022757;28;20083;-68
2021/11/10 04:09:13;;;;;;;0.17;0.15;;;;;;;;;;5017333;28;20038;-68
2021/11/10 04:11:39;;;;;;;16.38;2.00;;;;;;;;;;5009555;28;20037;-68
2021/11/10 04:14:05;;;;;;;0.47;0.47;;;;;;;;;;5012484;28;20026;-68
2021/11/10 04:16:31;;;;;;;1.10;0.82;;;;;;;;;;5019540;28;20018;-69
2021/11/10 04:18:58;;;;;;;0.93;0.93;;;;;;;;;;5011467;28;20048;-68
2021/11/10 04:21:24;;;;;;;0.10;0.10;;;;;;;;;;5009399;28;20046;-68
2021/11/10 04:23:52;;;;;;;0.60;0.45;;;;;;;;;;5011260;28;20060;-68
2021/11/10 04:26:19;;;;;;;0.10;0.10;;;;;;;;;;5012353;28;20030;-68
2021/11/10 04:28:45;;;;;;;0.40;0.40;;;;;;;;;;5012422;28;20033;-69
2021/11/10 04:31:11;;;;;;;0.43;0.43;;;;;;;;;;5010122;28;20073;-68
2021/11/10 04:33:37;;;;;;;0.45;0.45;;;;;;;;;;5008420;28;20072;-68
2021/11/10 04:36:03;;;;;;;0.10;0.10;;;;;;;;;;5008938;28;20440;-68
2021/11/10 04:38:29;;;;;;;0.55;0.55;;;;;;;;;;5013477;28;20285;-68
2021/11/10 04:40:55;;;;;;;0.40;0.40;;;;;;;;;;5010190;28;20120;-68
2021/11/10 04:43:21;;;;;;;0.38;0.38;;;;;;;;;;5008836;28;20032;-68
2021/11/10 04:45:50;;;;;;;2.35;0.90;;;;;;;;;;5012128;28;20029;-68
2021/11/10 04:48:17;;;;;;;0.10;0.10;;;;;;;;;;5009061;28;20034;-68
2021/11/10 04:50:44;;;;;;;0.17;0.17;;;;;;;;;;5008858;28;20033;-68
2021/11/10 04:53:11;;;;;;;0.32;0.32;;;;;;;;;;5009713;28;20033;-68
2021/11/10 04:55:38;;;;;;;1.17;1.08;;;;;;;;;;5009981;28;20030;-68
2021/11/10 04:58:04;;;;;;;0.45;0.45;;;;;;;;;;5019051;28;20025;-69
2021/11/10 05:00:30;;;;;;;0.13;0.13;;;;;;;;;;5008703;28;20164;-68
2021/11/10 05:02:56;;;;;;;0.47;0.28;;;;;;;;;;5008909;28;20429;-68
2021/11/10 05:05:21;;;;;;;5.72;0.85;;;;;;;;;;5008047;28;20030;-68
2021/11/10 05:07:48;;;;;;;0.13;0.13;;;;;;;;;;5010277;28;20785;-68
2021/11/10 05:10:14;;;;;;;0.40;0.40;;;;;;;;;;5008797;28;20065;-68
2021/11/10 05:12:40;;;;;;;3.30;0.75;;;;;;;;;;5017919;28;20503;-68
2021/11/10 05:15:06;;;;;;;0.43;0.43;;;;;;;;;;5015205;28;20125;-68
2021/11/10 05:17:32;;;;;;;0.65;0.65;;;;;;;;;;5000047;28;20030;-69
2021/11/10 05:19:58;;;;;;;1.45;1.10;;;;;;;;;;5008622;28;20041;-68
2021/11/10 05:22:24;;;;;;;2.85;0.95;;;;;;;;;;5011559;28;20029;-69
2021/11/10 05:24:50;;;;;;;0.22;0.22;;;;;;;;;;5008917;28;20037;-68
2021/11/10 05:27:16;;;;;;;0.47;0.47;;;;;;;;;;5010787;28;20109;-69
2021/11/10 05:29:42;;;;;;;0.40;0.40;;;;;;;;;;5009410;28;20026;-68
2021/11/10 05:32:08;;;;;;;1.33;0.38;;;;;;;;;;5012841;28;20044;-69
2021/11/10 05:34:35;;;;;;;0.60;0.60;;;;;;;;;;5017764;28;20021;-69
2021/11/10 05:37:01;;;;;;;6.15;2.17;;;;;;;;;;5007839;28;20022;-69
2021/11/10 05:39:27;;;;;;;0.57;0.57;;;;;;;;;;5009223;28;20145;-68
2021/11/10 05:41:53;;;;;;;0.32;0.30;;;;;;;;;;5008454;28;20165;-69
2021/11/10 05:44:19;;;;;;;0.32;0.32;;;;;;;;;;5010611;28;20034;-68
2021/11/10 05:46:45;;;;;;;0.10;0.10;;;;;;;;;;5010860;28;20022;-69
2021/11/10 05:49:10;;;;;;;0.38;0.38;;;;;;;;;;5009270;28;20030;-69
2021/11/10 05:51:36;;;;;;;0.10;0.10;;;;;;;;;;5009227;28;20025;-67
2021/11/10 05:54:03;;;;;;;2.28;0.88;;;;;;;;;;5009630;28;20105;-69
2021/11/10 05:56:32;;;;;;;0.28;0.28;;;;;;;;;;5011792;28;20022;-69
2021/11/10 05:58:59;;;;;;;1.38;0.60;;;;;;;;;;5009627;28;20037;-67
2021/11/10 06:01:25;;;;;;;0.82;0.82;;;;;;;;;;5018664;28;20473;-69
2021/11/10 06:03:51;;;;;;;0.70;0.70;;;;;;;;;;5012749;28;20033;-68
2021/11/10 06:06:17;;;;;;;0.90;0.65;;;;;;;;;;5011648;28;20046;-69
2021/11/10 06:08:43;;;;;;;0.43;0.43;;;;;;;;;;5009526;28;20113;-71
2021/11/10 06:11:10;;;;;;;0.13;0.13;;;;;;;;;;5014183;28;20045;-70
2021/11/10 06:13:36;;;;;;;0.50;0.50;;;;;;;;;;5013826;28;20030;-72
2021/11/10 06:16:03;;;;;;;0.52;0.52;;;;;;;;;;5013396;28;20018;-69
2021/11/10 06:18:29;;;;;;;0.30;0.30;;;;;;;;;;5010402;28;20030;-68
2021/11/10 06:20:56;;;;;;;0.25;0.25;;;;;;;;;;5021467;28;20030;-68
2021/11/10 06:23:22;;;;;;;1.02;0.93;;;;;;;;;;5012959;28;20029;-69
2021/11/10 06:25:48;;;;;;;0.10;0.10;;;;;;;;;;5007220;28;20133;-68
2021/11/10 06:28:14;;;;;;;0.52;0.52;;;;;;;;;;5015476;28;20204;-68
2021/11/10 06:30:40;;;;;;;0.98;0.98;;;;;;;;;;5009115;28;20037;-68
2021/11/10 06:33:06;;;;;;;0.20;0.20;;;;;;;;;;5010794;28;20396;-68
2021/11/10 06:35:32;;;;;;;0.40;0.40;;;;;;;;;;5021319;28;20040;-70
2021/11/10 06:37:58;;;;;;;0.50;0.50;;;;;;;;;;5016034;28;20033;-69
2021/11/10 06:40:24;;;;;;;0.30;0.30;;;;;;;;;;5008825;28;20038;-69
2021/11/10 06:42:50;;;;;;;2.28;0.75;;;;;;;;;;5008117;28;20099;-69
2021/11/10 06:45:16;;;;;;;0.88;0.25;;;;;;;;;;5010876;28;20062;-68
2021/11/10 06:47:42;;;;;;;0.50;0.50;;;;;;;;;;5009987;28;20048;-68
2021/11/10 06:50:09;;;;;;;1.45;0.40;;;;;;;;;;5011930;28;20026;-68
2021/11/10 06:52:35;;;;;;;3.17;2.08;;;;;;;;;;5008481;28;20023;-69
2021/11/10 06:55:00;;;;;;;0.77;0.77;;;;;;;;;;5011481;28;20120;-68
2021/11/10 06:57:27;;;;;;;1.45;1.13;;;;;;;;;;5011225;28;20045;-69
2021/11/10 06:59:53;;;;;;;0.65;0.65;;;;;;;;;;5010594;28;20667;-68
2021/11/10 07:02:19;;;;;;;0.63;0.25;;;;;;;;;;5016591;28;20105;-68
2021/11/10 07:04:45;;;;;;;4.47;1.23;;;;;;;;;;5008900;28;20037;-68
2021/11/10 07:07:11;;;;;;;0.60;0.60;;;;;;;;;;5011106;28;20493;-68
2021/11/10 07:09:37;;;;;;;1.00;0.75;;;;;;;;;;5010319;28;20030;-68
2021/11/10 07:12:03;;;;;;;1.77;1.30;;;;;;;;;;5011758;28;20029;-68
2021/11/10 07:14:29;;;;;;;0.55;0.55;;;;;;;;;;5007936;28;20159;-68
2021/11/10 07:16:55;;;;;;;0.93;0.93;;;;;;;;;;5011137;28;20578;-68
2021/11/10 07:19:21;;;;;;;0.40;0.40;;;;;;;;;;5013219;28;20036;-71
2021/11/10 07:21:47;;;;;;;3.17;1.67;;;;;;;;;;5017176;28;20049;-68
2021/11/10 07:24:24;;;;;;;0.50;0.50;;;;;;;;;;5011314;28;20033;-68
2021/11/10 07:26:50;;;;;;;0.75;0.75;;;;;;;;;;5010653;28;20034;-68
2021/11/10 07:29:16;;;;;;;3.10;1.80;;;;;;;;;;5010169;28;20030;-67
2021/11/10 07:31:42;;;;;;;0.20;0.20;;;;;;;;;;5009298;28;20049;-68
2021/11/10 07:34:08;;;;;;;1.55;1.45;;;;;;;;;;5010882;28;20084;-68
2021/11/10 07:36:34;;;;;;;0.93;0.93;;;;;;;;;;5009105;28;20029;-68
2021/11/10 07:39:00;;;;;;;16.92;3.05;;;;;;;;;;5011159;28;20041;-67
2021/11/10 07:41:29;;;;;;;0.47;0.47;;;;;;;;;;5008116;28;20030;-67
2021/11/10 07:43:55;;;;;;;0.70;0.63;;;;;;;;;;5010587;28;20422;-68
2021/11/10 07:46:24;;;;;;;2.15;1.88;;;;;;;;;;5009082;28;20038;-68
2021/11/10 07:48:50;;;;;;;0.15;0.15;;;;;;;;;;5009185;28;20034;-68
2021/11/10 07:51:19;;;;;;;2.03;1.15;;;;;;;;;;5010580;28;20032;-69
2021/11/10 07:53:45;;;;;;;1.20;1.17;;;;;;;;;;5009563;28;20532;-68
2021/11/10 07:56:11;;;;;;;1.35;1.27;;;;;;;;;;5010154;28;20405;-67
2021/11/10 07:58:38;;;;;;;1.48;1.38;;;;;;;;;;5009767;28;20029;-69
2021/11/10 08:01:04;;;;;;;0.88;0.70;;;;;;;;;;5010676;28;20052;-68
2021/11/10 08:03:30;;;;;;;3.97;1.50;;;;;;;;;;5008250;28;20057;-67
2021/11/10 08:05:57;;;;;;;1.35;0.75;;;;;;;;;;5010728;28;20044;-68
2021/11/10 08:08:23;;;;;;;1.48;1.10;;;;;;;;;;5011641;28;20524;-69
2021/11/10 08:10:50;;;;;;;0.20;0.20;;;;;;;;;;5006539;28;20032;-68
2021/11/10 08:13:16;;;;;;;2.92;1.73;;;;;;;;;;5008400;28;20473;-69
2021/11/10 08:15:42;;;;;;;0.32;0.32;;;;;;;;;;5008199;28;20057;-69
2021/11/10 08:18:08;;;;;;;0.57;0.40;;;;;;;;;;5009990;28;20026;-68
2021/11/10 08:20:34;;;;;;;3.13;1.23;;;;;;;;;;5007244;28;20405;-68
2021/11/10 08:23:00;;;;;;;0.35;0.35;;;;;;;;;;5005993;28;20060;-69
2021/11/10 08:25:26;;;;;;;2.22;1.95;;;;;;;;;;5010702;28;20026;-68
2021/11/10 08:27:54;;;;;;;0.57;0.57;;;;;;;;;;5008718;28;20044;-68
2021/11/10 08:30:20;;;;;;;0.50;0.50;;;;;;;;;;5009141;28;20048;-68
2021/11/10 08:32:46;;;;;;;1.15;0.98;;;;;;;;;;5006736;28;20018;-69
2021/11/10 08:35:13;;;;;;;9.52;2.58;;;;;;;;;;5008474;28;20040;-69
2021/11/10 08:37:39;;;;;;;0.20;0.20;;;;;;;;;;5009858;28;20077;-68
2021/11/10 08:40:06;;;;;;;2.65;1.73;;;;;;;;;;5008949;28;20068;-69
2021/11/10 08:42:33;;;;;;;0.43;0.43;;;;;;;;;;5009240;28;20105;-68
2021/11/10 08:45:19;;;;;;;0.45;0.45;;;;;;;;;;5007612;28;20040;-68
2021/11/10 08:47:50;;;;;;;0.85;0.85;;;;;;;;;;5009232;28;20104;-68
2021/11/10 08:50:18;;;;;;;0.60;0.60;;;;;;;;;;5008430;28;20125;-68
2021/11/10 08:52:44;;;;;;;0.52;0.52;;;;;;;;;;5009653;28;20433;-69
2021/11/10 08:55:12;;;;;;;1.75;1.65;;;;;;;;;;5006758;28;20777;-68
2021/11/10 08:57:38;;;;;;;0.60;0.60;;;;;;;;;;5009270;28;20461;-68
2021/11/10 09:00:05;;;;;;;0.68;0.68;;;;;;;;;;5007886;28;20358;-68
2021/11/10 09:02:31;;;;;;;0.55;0.55;;;;;;;;;;5008972;28;20485;-68
2021/11/10 09:04:57;;;;;;;0.47;0.47;;;;;;;;;;5007581;28;20057;-69
2021/11/10 09:07:23;;;;;;;0.45;0.45;;;;;;;;;;5008339;28;20045;-68
2021/11/10 09:09:49;;;;;;;0.70;0.70;;;;;;;;;;5008314;28;20048;-68
2021/11/10 09:12:15;;;;;;;0.52;0.50;;;;;;;;;;5009646;28;20061;-69
2021/11/10 09:14:41;;;;;;;1.88;1.20;;;;;;;;;;5019864;28;20026;-69
2021/11/10 09:17:07;;;;;;;0.70;0.68;;;;;;;;;;5007721;28;20445;-69
2021/11/10 09:19:33;;;;;;;0.68;0.68;;;;;;;;;;5008662;28;20088;-68
2021/11/10 09:21:59;;;;;;;1.58;1.48;;;;;;;;;;5007804;28;20038;-68
2021/11/10 09:24:25;;;;;;;0.47;0.47;;;;;;;;;;5008591;28;20079;-73
2021/11/10 09:26:51;;;;;;;3.55;0.98;;;;;;;;;;5005352;28;20038;-69
2021/11/10 09:29:19;;;;;;;1.25;1.15;;;;;;;;;;5007409;28;20033;-68
2021/11/10 09:31:46;;;;;;;1.10;1.00;;;;;;;;;;5008136;28;20041;-70
2021/11/10 09:34:13;;;;;;;3.10;1.00;;;;;;;;;;5007622;28;20034;-69
2021/11/10 09:36:46;;;;;;;0.98;0.98;;;;;;;;;;5007503;28;20025;-69
2021/11/10 09:39:12;;;;;;;4.28;2.58;;;;;;;;;;5008711;28;20267;-70
2021/11/10 09:41:39;;;;;;;1.08;1.05;;;;;;;;;;5008062;28;20489;-71
2021/11/10 09:44:05;;;;;;;0.65;0.60;;;;;;;;;;5008614;28;20042;-69
2021/11/10 09:46:31;;;;;;;0.60;0.60;;;;;;;;;;5006201;28;20478;-69
2021/11/10 09:48:58;;;;;;;0.30;0.30;;;;;;;;;;5007739;28;20045;-70
2021/11/10 09:51:24;;;;;;;1.00;1.00;;;;;;;;;;5008297;28;20026;-71
2021/11/10 09:53:51;;;;;;;0.77;0.77;;;;;;;;;;5008444;28;20084;-70
2021/11/10 09:56:17;;;;;;;1.40;1.30;;;;;;;;;;5008508;28;20033;-71
2021/11/10 09:58:46;;;;;;;1.20;1.02;;;;;;;;;;5007661;28;20056;-70
2021/11/10 10:01:12;;;;;;;1.98;0.73;;;;;;;;;;5006858;28;20038;-76
2021/11/10 10:03:39;;;;;;;0.22;0.22;;;;;;;;;;5008463;28;20034;-71
2021/11/10 10:06:05;;;;;;;1.38;1.27;;;;;;;;;;5008221;28;20366;-70
2021/11/10 10:08:31;;;;;;;0.63;0.63;;;;;;;;;;5008133;28;20049;-69
2021/11/10 10:10:57;;;;;;;2.10;1.65;;;;;;;;;;5007787;28;20025;-70
2021/11/10 10:13:23;;;;;;;0.50;0.50;;;;;;;;;;5008643;28;20396;-70
2021/11/10 10:15:51;;;;;;;4.32;1.80;;;;;;;;;;5007016;28;20113;-73
2021/11/10 10:18:27;;;;;;;0.70;0.70;;;;;;;;;;5008435;28;20091;-73
2021/11/10 10:20:56;;;;;;;2.20;1.95;;;;;;;;;;5007165;28;20043;-74
2021/11/10 10:23:23;;;;;;;1.77;1.65;;;;;;;;;;5007191;28;20018;-74
2021/11/10 10:25:51;;;;;;;0.93;0.88;;;;;;;;;;5008548;28;20026;-74
2021/11/10 10:28:19;;;;;;;0.50;0.50;;;;;;;;;;5007308;28;20087;-74
2021/11/10 10:30:46;;;;;;;0.50;0.50;;;;;;;;;;5008370;28;20045;-71
2021/11/10 10:33:16;;;;;;;0.55;0.55;;;;;;;;;;5006592;28;20117;-71
2021/11/10 10:35:43;;;;;;;1.05;0.95;;;;;;;;;;5007770;28;20022;-71
2021/11/10 10:38:11;;;;;;;0.57;0.57;;;;;;;;;;5007432;28;20104;-75
2021/11/10 10:40:38;;;;;;;0.40;0.40;;;;;;;;;;5008532;28;20084;-71
2021/11/10 10:43:04;;;;;;;0.63;0.52;;;;;;;;;;5007034;28;20682;-71
2021/11/10 10:45:30;;;;;;;3.35;1.65;;;;;;;;;;5005962;28;20040;-72
2021/11/10 10:47:57;;;;;;;0.85;0.75;;;;;;;;;;5005703;28;20025;-71
2021/11/10 10:50:36;;;;;;;1.75;1.60;;;;;;;;;;5007091;28;20491;-71
2021/11/10 10:53:02;;;;;;;0.25;0.25;;;;;;;;;;5007505;28;20030;-71
2021/11/10 10:55:33;;;;;;;1.55;1.38;;;;;;;;;;5007262;28;20060;-71
2021/11/10 10:58:00;;;;;;;0.35;0.30;;;;;;;;;;5010028;28;20080;-70
2021/11/10 11:00:28;;;;;;;0.93;0.90;;;;;;;;;;5010826;28;20026;-71
2021/11/10 11:02:54;;;;;;;1.27;1.20;;;;;;;;;;5010863;28;20522;-71
2021/11/10 11:05:39;;;;;;;3.60;1.67;;;;;;;;;;5011278;28;20124;-71
2021/11/10 11:08:23;;;;;;;0.98;0.52;;;;;;;;;;5010571;28;20026;-71
2021/11/10 11:10:49;;;;;;;0.63;0.63;;;;;;;;;;5009864;28;20120;-71
2021/11/10 11:13:22;;;;;;;0.50;0.50;;;;;;;;;;5010761;28;20129;-72
2021/11/10 11:16:06;;;;;;;1.35;1.20;;;;;;;;;;5010263;28;20059;-71
2021/11/10 11:18:33;;;;;;;3.30;1.33;;;;;;;;;;5010150;28;20029;-71
2021/11/10 11:20:59;;;;;;;1.02;1.02;;;;;;;;;;5010542;28;20096;-71
2021/11/10 11:23:40;;;;;;;7.07;1.75;;;;;;;;;;5010689;28;20034;-71
2021/11/10 11:26:06;;;;;;;1.77;1.17;;;;;;;;;;5010752;28;20029;-71
2021/11/10 11:28:37;;;;;;;0.85;0.85;;;;;;;;;;5009787;28;20080;-72
2021/11/10 11:31:03;;;;;;;2.00;1.65;;;;;;;;;;5010190;28;20033;-71
2021/11/10 11:33:31;;;;;;;0.63;0.60;;;;;;;;;;5010224;28;20018;-71
2021/11/10 11:35:58;;;;;;;1.58;1.08;;;;;;;;;;5010346;28;20105;-71
2021/11/10 11:38:25;;;;;;;0.45;0.43;;;;;;;;;;5010461;28;20580;-71
2021/11/10 11:40:53;;;;;;;0.75;0.75;;;;;;;;;;5009951;28;20026;-71
2021/11/10 11:43:20;;;;;;;1.60;1.15;;;;;;;;;;5010830;28;20029;-71
2021/11/10 11:45:48;;;;;;;0.20;0.20;;;;;;;;;;5010011;28;20066;-71
2021/11/10 11:48:17;;;;;;;1.23;1.15;;;;;;;;;;5009929;28;20065;-71
2021/11/10 11:50:44;;;;;;;0.75;0.65;;;;;;;;;;5010197;28;20026;-71
2021/11/10 11:53:10;;;;;;;3.80;2.30;;;;;;;;;;5009976;28;20029;-71
2021/11/10 11:55:36;;;;;;;4.10;1.23;;;;;;;;;;5009987;28;20026;-71
2021/11/10 11:58:08;;;;;;;1.73;1.10;;;;;;;;;;5009915;28;20041;-71
2021/11/10 12:00:34;;;;;;;0.57;0.57;;;;;;;;;;5009861;28;20108;-71
2021/11/10 12:03:01;;;;;;;0.30;0.30;;;;;;;;;;5009949;28;20030;-71
2021/11/10 12:05:27;;;;;;;0.57;0.57;;;;;;;;;;5009551;28;20034;-71
2021/11/10 12:07:54;;;;;;;2.33;1.80;;;;;;;;;;5008242;28;20030;-71
2021/11/10 12:10:23;;;;;;;1.52;1.17;;;;;;;;;;5009773;28;20036;-71
2021/11/10 12:13:05;;;;;;;1.15;1.00;;;;;;;;;;5008859;28;20097;-72
2021/11/10 12:15:51;;;;;;;1.58;1.48;;;;;;;;;;5009202;28;20033;-71
2021/11/10 12:18:21;;;;;;;0.75;0.50;;;;;;;;;;5009588;28;20107;-71
2021/11/10 12:20:47;;;;;;;0.63;0.63;;;;;;;;;;5009180;28;20400;-71
2021/11/10 12:23:13;;;;;;;1.63;1.25;;;;;;;;;;5009048;28;20030;-70
2021/11/10 12:25:59;;;;;;;0.68;0.68;;;;;;;;;;5009324;28;20045;-71
2021/11/10 12:28:44;;;;;;;1.30;1.23;;;;;;;;;;5008838;28;20108;-71
2021/11/10 12:31:28;;;;;;;2.17;1.35;;;;;;;;;;5008659;28;20061;-71
2021/11/10 12:33:55;;;;;;;1.08;1.00;;;;;;;;;;5009145;28;20056;-71
2021/11/10 12:36:42;;;;;;;4.40;2.40;;;;;;;;;;5009037;28;20065;-71
2021/11/10 12:39:09;;;;;;;0.43;0.43;;;;;;;;;;5007986;28;20432;-71
2021/11/10 12:41:46;;;;;;;1.17;1.05;;;;;;;;;;5008682;28;20058;-71
2021/11/10 12:44:31;;;;;;;0.52;0.52;;;;;;;;;;5008651;28;20034;-70
2021/11/10 12:46:57;;;;;;;1.77;1.25;;;;;;;;;;5008877;28;20033;-71
2021/11/10 12:49:23;;;;;;;1.27;1.08;;;;;;;;;;5008832;28;20022;-70
2021/11/10 12:52:08;;;;;;;1.23;1.13;;;;;;;;;;5008071;28;20483;-71
2021/11/10 12:54:34;;;;;;;2.92;1.42;;;;;;;;;;5009115;28;20041;-71
2021/11/10 12:57:00;;;;;;;2.13;1.58;;;;;;;;;;5009048;28;20471;-71
2021/11/10 12:59:33;;;;;;;1.92;1.27;;;;;;;;;;5008497;28;20034;-71
2021/11/10 13:02:13;;;;;;;1.83;1.13;;;;;;;;;;5007997;28;20033;-71
2021/11/10 13:04:44;;;;;;;2.42;1.60;;;;;;;;;;5006127;28;20408;-71
2021/11/10 13:07:17;;;;;;;1.60;1.30;;;;;;;;;;5008239;28;20146;-71
2021/11/10 13:09:43;;;;;;;1.75;1.52;;;;;;;;;;5008561;28;20030;-71
2021/11/10 13:12:12;;;;;;;2.97;1.65;;;;;;;;;;5008598;28;20229;-71
2021/11/10 13:14:58;;;;;;;0.93;0.90;;;;;;;;;;5009438;28;20026;-71
2021/11/10 13:17:29;;;;;;;3.00;1.27;;;;;;;;;;5008631;28;20014;-72
2021/11/10 13:19:59;;;;;;;1.35;1.30;;;;;;;;;;5008426;28;20050;-70
2021/11/10 13:22:28;;;;;;;2.50;1.15;;;;;;;;;;5008909;28;20092;-70
2021/11/10 13:25:01;;;;;;;1.10;1.00;;;;;;;;;;5008623;28;20108;-70
2021/11/10 13:27:38;;;;;;;1.00;0.88;;;;;;;;;;5008251;28;20176;-70
2021/11/10 13:30:07;;;;;;;1.98;1.48;;;;;;;;;;5013738;28;20029;-70
2021/11/10 13:32:37;;;;;;;4.00;1.17;;;;;;;;;;5005797;28;20149;-70
2021/11/10 13:35:04;;;;;;;0.70;0.70;;;;;;;;;;5006711;28;20033;-70
2021/11/10 13:37:43;;;;;;;0.70;0.70;;;;;;;;;;5008162;28;20102;-70
2021/11/10 13:40:10;;;;;;;1.08;0.90;;;;;;;;;;5007271;28;20038;-71
2021/11/10 13:42:38;;;;;;;1.05;1.00;;;;;;;;;;5007305;28;20370;-71
2021/11/10 13:45:05;;;;;;;1.77;1.63;;;;;;;;;;5007334;28;20034;-70
2021/11/10 13:47:31;;;;;;;1.25;1.15;;;;;;;;;;5006437;28;20061;-70
2021/11/10 13:49:57;;;;;;;0.93;0.93;;;;;;;;;;5007210;28;20022;-70
2021/11/10 13:52:26;;;;;;;0.25;0.25;;;;;;;;;;5009361;28;20029;-70
2021/11/10 13:54:54;;;;;;;2.28;2.08;;;;;;;;;;5006919;28;20014;-71
2021/11/10 13:57:20;;;;;;;5.45;1.65;;;;;;;;;;5008595;28;20527;-70
2021/11/10 13:59:49;;;;;;;4.57;0.95;;;;;;;;;;5009239;28;20030;-70
2021/11/10 14:02:18;;;;;;;0.52;0.52;;;;;;;;;;5012936;28;20046;-69
2021/11/10 14:04:52;;;;;;;2.40;1.48;;;;;;;;;;5010313;28;20045;-70
2021/11/10 14:07:18;;;;;;;0.70;0.70;;;;;;;;;;5013456;28;20029;-70
2021/11/10 14:09:44;;;;;;;0.25;0.25;;;;;;;;;;5015987;28;20033;-71
2021/11/10 14:12:19;;;;;;;0.10;0.10;;;;;;;;;;5017302;28;20516;-71
2021/11/10 14:14:45;;;;;;;2.65;2.00;;;;;;;;;;5011552;28;20064;-71
2021/11/10 14:17:11;;;;;;;1.20;1.10;;;;;;;;;;5009459;28;20123;-71
2021/11/10 14:19:37;;;;;;;0.38;0.38;;;;;;;;;;5011609;28;20109;-71
2021/11/10 14:22:03;;;;;;;1.35;1.30;;;;;;;;;;5009530;28;20715;-71
2021/11/10 14:24:31;;;;;;;1.48;1.40;;;;;;;;;;5008841;28;20038;-71
2021/11/10 14:27:03;;;;;;;1.23;1.13;;;;;;;;;;5009529;28;20119;-71
2021/11/10 14:29:31;;;;;;;0.30;0.30;;;;;;;;;;5009938;28;20030;-71
2021/11/10 14:31:57;;;;;;;4.40;1.38;;;;;;;;;;5018343;28;20032;-70
2021/11/10 14:34:33;;;;;;;1.40;1.05;;;;;;;;;;5012793;28;20026;-70
2021/11/10 14:37:00;;;;;;;0.85;0.85;;;;;;;;;;5016849;28;20029;-71
2021/11/10 14:39:27;;;;;;;1.65;0.50;;;;;;;;;;5014128;28;20032;-70
2021/11/10 14:42:01;;;;;;;1.17;1.08;;;;;;;;;;5020265;28;20152;-73
2021/11/10 14:44:29;;;;;;;0.65;0.65;;;;;;;;;;5009256;28;20026;-71
2021/11/10 14:46:55;;;;;;;2.63;0.95;;;;;;;;;;5011921;28;20108;-70